Time;durP1;ratioP1;P1;durP2;ratioP2;P2;SDS_P1;SDS_P2;PMS_P1;PMS_P2;Temp;Humidity;BMP_temperature;BMP_pressure;BME280_temperature;BME280_humidity;BME280_pressure;Samples;Min_cycle;Max_cycle;Signal;HPM_P1;HPM_P2
2020/12/14 00:01:54;;;;;;;30.70;15.27;;;4.90;99.90;;;;;;4140069;28;20829;-42
2020/12/14 00:03:56;;;;;;;30.20;15.00;;;5.00;99.90;;;;;;4139703;28;20801;-54
2020/12/14 00:05:57;;;;;;;28.23;13.50;;;5.00;99.90;;;;;;4139315;28;20263;-48
2020/12/14 00:07:58;;;;;;;28.17;14.13;;;5.00;99.90;;;;;;4139304;28;20306;-47
2020/12/14 00:10:01;;;;;;;26.70;13.57;;;5.00;99.90;;;;;;4139705;28;20271;-42
2020/12/14 00:12:03;;;;;;;23.90;12.27;;;5.00;99.90;;;;;;4139515;28;21186;-42
2020/12/14 00:14:04;;;;;;;22.00;11.03;;;5.00;99.90;;;;;;4139878;28;20318;-42
2020/12/14 00:16:08;;;;;;;23.13;12.33;;;5.00;99.90;;;;;;4138488;28;20829;-45
2020/12/14 00:18:09;;;;;;;23.07;11.77;;;5.00;99.90;;;;;;4140082;28;20258;-49
2020/12/14 00:20:11;;;;;;;23.00;12.13;;;5.00;99.90;;;;;;4138593;28;20739;-45
2020/12/14 00:22:12;;;;;;;24.50;12.47;;;5.00;99.90;;;;;;4138478;28;20364;-43
2020/12/14 00:24:13;;;;;;;27.10;12.73;;;5.00;99.90;;;;;;4140268;28;20830;-43
2020/12/14 00:26:14;;;;;;;38.33;17.90;;;5.00;99.90;;;;;;4121597;28;20270;-39
2020/12/14 00:28:16;;;;;;;32.00;15.00;;;5.00;99.90;;;;;;4139827;28;20263;-41
2020/12/14 00:30:17;;;;;;;31.70;14.97;;;5.00;99.90;;;;;;4138719;28;20275;-40
2020/12/14 00:32:18;;;;;;;23.70;11.93;;;4.90;99.90;;;;;;4140183;28;20259;-42
2020/12/14 00:34:21;;;;;;;25.57;12.63;;;4.90;99.90;;;;;;4139296;28;20341;-39
2020/12/14 00:36:22;;;;;;;28.67;13.67;;;4.90;99.90;;;;;;4034276;28;3060561;-43
2020/12/14 00:38:23;;;;;;;24.43;13.47;;;4.90;99.90;;;;;;4139502;28;20306;-42
2020/12/14 00:40:29;;;;;;;26.27;12.47;;;4.90;99.90;;;;;;4140095;28;20291;-40
2020/12/14 00:42:30;;;;;;;25.67;12.40;;;4.90;99.90;;;;;;4140418;28;20252;-49
2020/12/14 00:44:31;;;;;;;25.73;13.40;;;4.90;99.90;;;;;;4139208;28;20271;-39
2020/12/14 00:46:33;;;;;;;27.70;13.10;;;4.90;99.90;;;;;;4138936;28;20287;-41
2020/12/14 00:48:34;;;;;;;27.10;12.33;;;4.90;99.90;;;;;;4140316;28;20259;-44
2020/12/14 00:50:35;;;;;;;26.83;13.23;;;4.90;99.90;;;;;;4139268;28;20329;-39
2020/12/14 00:52:36;;;;;;;27.07;12.37;;;4.90;99.90;;;;;;4140049;28;20267;-39
2020/12/14 00:54:37;;;;;;;24.23;11.97;;;4.90;99.90;;;;;;4139678;28;20279;-39
2020/12/14 00:56:38;;;;;;;28.33;12.57;;;4.90;99.90;;;;;;4138904;28;20329;-52
2020/12/14 00:58:39;;;;;;;24.87;11.70;;;4.90;99.90;;;;;;4140137;28;20337;-41
2020/12/14 01:00:40;;;;;;;26.27;10.83;;;4.80;99.90;;;;;;4138259;28;20377;-50
2020/12/14 01:02:41;;;;;;;27.20;12.93;;;4.80;99.90;;;;;;4139840;28;20279;-50
2020/12/14 01:04:42;;;;;;;27.90;11.63;;;4.90;99.90;;;;;;4138636;28;20271;-43
2020/12/14 01:06:44;;;;;;;27.47;12.70;;;4.80;99.90;;;;;;4139370;28;20325;-42
2020/12/14 01:10:56;;;;;;;;;;;4.80;99.90;;;;;;4275261;22;20302;-46
2020/12/14 01:12:57;;;;;;;29.10;12.43;;;4.80;99.90;;;;;;4155870;28;20364;-46
2020/12/14 01:14:58;;;;;;;27.67;12.10;;;4.80;99.90;;;;;;4157222;28;20519;-43
2020/12/14 01:16:59;;;;;;;24.93;11.50;;;4.80;99.90;;;;;;4156060;28;20283;-42
2020/12/14 01:19:00;;;;;;;24.83;11.27;;;4.80;99.90;;;;;;4158240;28;20328;-48
2020/12/14 01:21:01;;;;;;;26.27;11.70;;;4.70;99.90;;;;;;4156197;28;20349;-55
2020/12/14 01:23:02;;;;;;;22.10;11.30;;;4.70;99.90;;;;;;4156745;28;20321;-52
2020/12/14 01:25:03;;;;;;;35.93;14.70;;;4.70;99.90;;;;;;4156276;28;20890;-39
2020/12/14 01:27:04;;;;;;;26.77;12.20;;;4.70;99.90;;;;;;4159970;28;20279;-61
2020/12/14 01:29:06;;;;;;;44.50;19.03;;;4.70;99.90;;;;;;4159989;28;20263;-43
2020/12/14 01:31:07;;;;;;;49.70;18.30;;;4.70;99.90;;;;;;4161390;28;20274;-53
2020/12/14 01:33:08;;;;;;;34.63;15.20;;;4.70;99.90;;;;;;4161664;28;20317;-40
2020/12/14 01:35:09;;;;;;;31.73;13.63;;;4.80;99.90;;;;;;4155076;28;20306;-60
2020/12/14 01:37:10;;;;;;;31.27;12.70;;;4.80;99.90;;;;;;4145093;28;20283;-40
2020/12/14 01:39:11;;;;;;;29.03;13.43;;;4.80;99.90;;;;;;4143620;28;20394;-41
2020/12/14 01:41:12;;;;;;;29.27;11.63;;;4.80;99.90;;;;;;4141560;28;20814;-47
2020/12/14 01:43:13;;;;;;;30.30;14.63;;;4.80;99.90;;;;;;4140269;28;20283;-46
2020/12/14 01:45:18;;;;;;;25.67;10.70;;;4.80;99.90;;;;;;4141190;28;20287;-50
2020/12/14 01:47:30;;;;;;;24.80;11.60;;;4.80;99.90;;;;;;4139708;28;20283;-53
2020/12/14 01:49:31;;;;;;;22.97;10.63;;;4.80;99.90;;;;;;4141448;28;20275;-49
2020/12/14 01:51:33;;;;;;;26.43;11.40;;;4.70;99.90;;;;;;4138748;28;20287;-47
2020/12/14 01:53:35;;;;;;;21.63;10.80;;;4.70;99.90;;;;;;4140625;28;20283;-42
2020/12/14 01:55:43;;;;;;;29.30;12.10;;;4.70;99.90;;;;;;4148340;28;20337;-41
2020/12/14 01:57:44;;;;;;;24.50;10.33;;;4.70;99.90;;;;;;4161139;28;20270;-49
2020/12/14 01:59:45;;;;;;;25.40;11.47;;;4.70;99.90;;;;;;4159066;28;20266;-47
2020/12/14 02:01:46;;;;;;;25.20;10.93;;;4.80;99.90;;;;;;4142135;28;20310;-49
2020/12/14 02:03:48;;;;;;;24.33;11.13;;;4.80;99.90;;;;;;4159489;28;20332;-43
2020/12/14 02:05:49;;;;;;;22.30;11.70;;;4.70;99.90;;;;;;4159686;28;20345;-50
2020/12/14 02:07:50;;;;;;;21.63;10.53;;;4.80;99.90;;;;;;4159542;28;20279;-45
2020/12/14 02:09:53;;;;;;;21.10;9.60;;;4.80;99.90;;;;;;4158852;28;20302;-54
2020/12/14 02:11:54;;;;;;;21.13;10.87;;;4.80;99.90;;;;;;4160262;28;20321;-42
2020/12/14 02:13:57;;;;;;;22.50;11.57;;;4.80;99.90;;;;;;4159671;28;20373;-43
2020/12/14 02:15:58;;;;;;;26.63;11.70;;;4.80;99.90;;;;;;4160737;28;20832;-42
2020/12/14 02:17:59;;;;;;;22.87;11.53;;;4.80;99.90;;;;;;4159396;28;20259;-44
2020/12/14 02:20:00;;;;;;;24.43;10.90;;;4.80;99.90;;;;;;4160117;28;20267;-42
2020/12/14 02:22:01;;;;;;;22.97;11.23;;;4.80;99.90;;;;;;4158677;28;20368;-47
2020/12/14 02:24:13;;;;;;;24.50;11.33;;;4.80;99.90;;;;;;4159832;28;20283;-40
2020/12/14 02:26:14;;;;;;;20.87;10.33;;;4.80;99.90;;;;;;4143225;28;20690;-41
2020/12/14 02:28:15;;;;;;;19.50;10.30;;;4.80;99.90;;;;;;4144358;28;20329;-39
2020/12/14 02:30:16;;;;;;;19.87;9.27;;;4.80;99.90;;;;;;4142195;28;20279;-47
2020/12/14 02:32:18;;;;;;;21.23;10.83;;;4.80;99.90;;;;;;4143584;28;20283;-46
2020/12/14 02:34:20;;;;;;;22.87;10.90;;;4.80;99.90;;;;;;4141262;28;20307;-46
2020/12/14 02:36:21;;;;;;;19.53;10.80;;;4.80;99.90;;;;;;4143188;28;20330;-54
2020/12/14 02:38:23;;;;;;;17.30;8.93;;;4.80;99.90;;;;;;4142829;28;20833;-55
2020/12/14 02:40:24;;;;;;;15.40;8.67;;;4.70;99.90;;;;;;4142874;28;20362;-51
2020/12/14 02:42:25;;;;;;;19.20;9.40;;;4.80;99.90;;;;;;4143347;28;20295;-39
2020/12/14 02:44:26;;;;;;;16.87;8.67;;;4.70;99.90;;;;;;4142760;28;20325;-60
2020/12/14 02:46:27;;;;;;;19.93;10.67;;;4.70;99.90;;;;;;4143845;28;20318;-43
2020/12/14 02:48:28;;;;;;;22.20;10.00;;;4.70;99.90;;;;;;4145557;28;20279;-41
2020/12/14 02:50:30;;;;;;;18.47;8.70;;;4.70;99.90;;;;;;4159926;28;20330;-46
2020/12/14 02:52:31;;;;;;;18.97;9.70;;;4.70;99.90;;;;;;4140962;28;20807;-43
2020/12/14 02:54:33;;;;;;;18.53;10.13;;;4.70;99.90;;;;;;4159027;28;20628;-53
2020/12/14 02:56:34;;;;;;;19.87;9.93;;;4.70;99.90;;;;;;4157847;28;20271;-44
2020/12/14 02:58:36;;;;;;;18.47;9.27;;;4.70;99.90;;;;;;4159095;28;20894;-41
2020/12/14 03:00:37;;;;;;;20.80;10.03;;;4.70;99.90;;;;;;4158165;28;20287;-53
2020/12/14 03:02:38;;;;;;;18.30;9.27;;;4.70;99.90;;;;;;4159572;28;20745;-41
2020/12/14 03:04:39;;;;;;;19.17;9.43;;;4.70;99.90;;;;;;4158173;28;20356;-51
2020/12/14 03:06:43;;;;;;;19.63;10.13;;;4.70;99.90;;;;;;4158565;28;20352;-50
2020/12/14 03:08:46;;;;;;;20.90;10.23;;;4.70;99.90;;;;;;4150118;28;20267;-47
2020/12/14 03:10:47;;;;;;;17.57;9.47;;;4.70;99.90;;;;;;4142889;28;20663;-50
2020/12/14 03:12:48;;;;;;;21.07;10.23;;;4.70;99.90;;;;;;4142099;28;20275;-40
2020/12/14 03:14:51;;;;;;;21.93;10.43;;;4.70;99.90;;;;;;4142693;28;20271;-53
2020/12/14 03:16:53;;;;;;;21.30;10.07;;;4.70;99.90;;;;;;4142369;28;20276;-49
2020/12/14 03:18:54;;;;;;;22.13;10.73;;;4.70;99.90;;;;;;4141682;28;20329;-44
2020/12/14 03:20:55;;;;;;;19.10;10.07;;;4.70;99.90;;;;;;4142691;28;20836;-49
2020/12/14 03:22:56;;;;;;;24.33;11.13;;;4.70;99.90;;;;;;4141689;28;20271;-55
2020/12/14 03:24:57;;;;;;;21.70;11.00;;;4.70;99.90;;;;;;4142490;28;20280;-45
2020/12/14 03:26:58;;;;;;;24.30;11.20;;;4.80;99.90;;;;;;4141617;28;20755;-48
2020/12/14 03:29:00;;;;;;;20.57;9.90;;;4.80;99.90;;;;;;4143061;28;20287;-42
2020/12/14 03:31:03;;;;;;;24.57;11.20;;;4.80;99.90;;;;;;4141552;28;20276;-39
2020/12/14 03:33:04;;;;;;;27.13;11.10;;;4.80;99.90;;;;;;4142266;28;20353;-42
2020/12/14 03:35:06;;;;;;;23.43;11.30;;;4.80;99.90;;;;;;4141270;28;20743;-49
2020/12/14 03:37:07;;;;;;;23.07;11.17;;;4.70;99.90;;;;;;4142654;28;20326;-61
2020/12/14 03:39:08;;;;;;;23.33;10.93;;;4.70;99.90;;;;;;4151847;28;20349;-42
2020/12/14 03:41:09;;;;;;;23.73;11.90;;;4.70;99.90;;;;;;4158340;28;20314;-41
2020/12/14 03:43:10;;;;;;;20.67;10.57;;;4.60;99.90;;;;;;4158490;28;20405;-43
2020/12/14 03:45:11;;;;;;;22.67;11.63;;;4.70;99.90;;;;;;4155641;28;20291;-43
2020/12/14 03:47:13;;;;;;;24.27;11.93;;;4.60;99.90;;;;;;4157660;28;20266;-43
2020/12/14 03:49:14;;;;;;;20.50;11.23;;;4.60;99.90;;;;;;4157661;28;20266;-40
2020/12/14 03:51:15;;;;;;;22.57;11.10;;;4.60;99.90;;;;;;4158650;28;20258;-44
2020/12/14 03:53:16;;;;;;;20.50;10.43;;;4.60;99.90;;;;;;4157695;28;20397;-47
2020/12/14 03:55:17;;;;;;;17.73;9.33;;;4.60;99.90;;;;;;4158667;28;20267;-42
2020/12/14 03:57:19;;;;;;;20.23;10.43;;;4.60;99.90;;;;;;4157406;28;20271;-44
2020/12/14 03:59:20;;;;;;;19.37;9.53;;;4.60;99.90;;;;;;4158506;28;20356;-42
2020/12/14 04:01:22;;;;;;;19.70;10.17;;;4.60;99.90;;;;;;4157403;28;20290;-40
2020/12/14 04:03:25;;;;;;;21.00;11.00;;;4.60;99.90;;;;;;4158385;28;20313;-43
2020/12/14 04:05:26;;;;;;;20.43;11.27;;;4.60;99.90;;;;;;4156726;28;20263;-43
2020/12/14 04:07:27;;;;;;;21.13;10.50;;;4.60;99.90;;;;;;4157826;28;20824;-48
2020/12/14 04:09:29;;;;;;;22.17;10.20;;;4.60;99.90;;;;;;4156995;28;20266;-46
2020/12/14 04:11:30;;;;;;;22.77;10.50;;;4.50;99.90;;;;;;4158123;28;20286;-47
2020/12/14 04:13:32;;;;;;;21.37;9.17;;;4.50;99.90;;;;;;4157324;28;20263;-45
2020/12/14 04:15:33;;;;;;;24.87;10.03;;;4.50;99.90;;;;;;4157292;28;20266;-44
2020/12/14 04:17:34;;;;;;;24.30;10.07;;;4.50;99.90;;;;;;4158057;28;20341;-46
2020/12/14 04:19:35;;;;;;;24.40;10.10;;;4.50;99.90;;;;;;4156987;28;20317;-41
2020/12/14 04:21:36;;;;;;;21.23;10.63;;;4.50;99.90;;;;;;4157133;28;20299;-48
2020/12/14 04:23:37;;;;;;;23.07;11.07;;;4.50;99.90;;;;;;4157232;28;20283;-48
2020/12/14 04:25:38;;;;;;;21.33;11.00;;;4.50;99.90;;;;;;4158699;28;20277;-54
2020/12/14 04:27:39;;;;;;;24.40;10.67;;;4.50;99.90;;;;;;4156851;28;20279;-40
2020/12/14 04:29:40;;;;;;;23.03;9.97;;;4.60;99.90;;;;;;4157628;28;20353;-48
2020/12/14 04:31:41;;;;;;;21.87;10.10;;;4.50;99.90;;;;;;4155976;28;20279;-53
2020/12/14 04:33:42;;;;;;;20.90;11.43;;;4.60;99.90;;;;;;4157999;28;20746;-42
2020/12/14 04:35:44;;;;;;;18.87;8.93;;;4.60;99.90;;;;;;4156044;28;20340;-46
2020/12/14 04:37:45;;;;;;;21.60;11.10;;;4.60;99.90;;;;;;4157626;28;20279;-49
2020/12/14 04:39:46;;;;;;;22.43;10.87;;;4.60;99.90;;;;;;4156283;28;20267;-48
2020/12/14 04:41:47;;;;;;;23.33;10.03;;;4.60;99.90;;;;;;4153667;28;20306;-51
2020/12/14 04:43:51;;;;;;;20.37;9.80;;;4.60;99.90;;;;;;4156608;28;20278;-52
2020/12/14 04:45:54;;;;;;;23.27;9.77;;;4.60;99.90;;;;;;4141844;28;20287;-42
2020/12/14 04:47:59;;;;;;;25.80;10.20;;;4.60;99.90;;;;;;4140859;28;20786;-47
2020/12/14 04:50:01;;;;;;;22.17;9.50;;;4.60;99.90;;;;;;4140034;28;20335;-52
2020/12/14 04:52:04;;;;;;;17.87;9.70;;;4.60;99.90;;;;;;4148548;28;20259;-43
2020/12/14 04:54:05;;;;;;;22.33;10.77;;;4.60;99.90;;;;;;4155860;28;20275;-39
2020/12/14 04:56:10;;;;;;;19.63;10.03;;;4.60;99.90;;;;;;4149301;28;20341;-39
2020/12/14 04:58:11;;;;;;;20.57;8.97;;;4.50;99.90;;;;;;4139696;28;20279;-44
2020/12/14 05:00:12;;;;;;;18.63;9.53;;;4.60;99.90;;;;;;4140671;28;20279;-43
2020/12/14 05:02:13;;;;;;;19.57;9.17;;;4.60;99.90;;;;;;4140449;28;20303;-41
2020/12/14 05:04:14;;;;;;;20.50;9.07;;;4.50;99.90;;;;;;4157339;28;20371;-43
2020/12/14 05:06:15;;;;;;;19.77;9.27;;;4.60;99.90;;;;;;4155715;28;20336;-41
2020/12/14 05:08:26;;;;;;;19.03;10.30;;;4.50;99.90;;;;;;4157203;28;20283;-39
2020/12/14 05:10:29;;;;;;;21.63;11.07;;;4.60;99.90;;;;;;4156336;28;20333;-38
2020/12/14 05:12:30;;;;;;;20.80;9.40;;;4.50;99.90;;;;;;4156110;28;20091;-53
2020/12/14 05:14:35;;;;;;;19.53;9.67;;;4.50;99.90;;;;;;4156691;28;20316;-41
2020/12/14 05:16:36;;;;;;;17.40;7.97;;;4.50;99.90;;;;;;4157298;28;20604;-51
2020/12/14 05:18:37;;;;;;;16.40;8.80;;;4.50;99.90;;;;;;4155609;28;20275;-40
2020/12/14 05:20:40;;;;;;;17.80;7.90;;;4.50;99.90;;;;;;4155984;28;20329;-48
2020/12/14 05:22:55;;;;;;;19.33;8.77;;;4.50;99.90;;;;;;4153599;28;20369;-44
2020/12/14 05:24:56;;;;;;;14.33;7.87;;;4.50;99.90;;;;;;4153018;28;20370;-40
2020/12/14 05:26:59;;;;;;;16.67;8.53;;;4.60;99.90;;;;;;4127536;28;20343;-42
2020/12/14 05:29:00;;;;;;;18.87;10.13;;;4.50;99.90;;;;;;4141502;28;20346;-48
2020/12/14 05:31:02;;;;;;;20.40;9.13;;;4.60;99.90;;;;;;4140365;28;20290;-44
2020/12/14 05:33:04;;;;;;;16.60;7.90;;;4.50;99.90;;;;;;4139899;28;20267;-55
2020/12/14 05:35:12;;;;;;;15.53;7.50;;;4.60;99.90;;;;;;4156168;28;20359;-39
2020/12/14 05:37:14;;;;;;;16.63;8.27;;;4.60;99.90;;;;;;4155542;28;20325;-53
2020/12/14 05:39:26;;;;;;;18.87;9.07;;;4.60;99.90;;;;;;4146888;28;20271;-50
2020/12/14 05:41:27;;;;;;;13.93;8.07;;;4.60;99.90;;;;;;4147220;28;20287;-38
2020/12/14 05:43:31;;;;;;;19.50;9.23;;;4.70;99.90;;;;;;4156284;28;20271;-50
2020/12/14 05:45:32;;;;;;;18.13;8.30;;;4.70;99.90;;;;;;4153543;28;20290;-58
2020/12/14 05:47:33;;;;;;;16.97;8.13;;;4.70;99.90;;;;;;4155664;28;20311;-55
2020/12/14 05:49:34;;;;;;;16.63;8.20;;;4.70;99.90;;;;;;4137581;28;20268;-42
2020/12/14 05:51:38;;;;;;;18.10;9.67;;;4.70;99.90;;;;;;4156834;28;20557;-43
2020/12/14 05:53:40;;;;;;;18.77;9.07;;;4.70;99.90;;;;;;4155481;28;20270;-46
2020/12/14 05:55:44;;;;;;;19.03;9.60;;;4.70;99.90;;;;;;4156004;28;20271;-43
2020/12/14 05:57:50;;;;;;;19.43;9.67;;;4.70;99.90;;;;;;4154755;28;20321;-41
2020/12/14 05:59:55;;;;;;;19.50;9.33;;;4.70;99.90;;;;;;4156193;28;20317;-45
2020/12/14 06:01:56;;;;;;;18.97;9.17;;;4.70;99.90;;;;;;4154790;28;20291;-47
2020/12/14 06:03:58;;;;;;;18.47;8.60;;;4.70;99.90;;;;;;4156610;28;20293;-54
2020/12/14 06:06:02;;;;;;;19.53;10.00;;;4.70;99.90;;;;;;4155746;28;20360;-40
2020/12/14 06:08:22;;;;;;;21.73;10.23;;;4.70;99.90;;;;;;4156663;28;20344;-38
2020/12/14 06:10:27;;;;;;;24.33;11.05;;;4.70;99.90;;;;;;4155890;28;20282;-38
2020/12/14 06:12:30;;;;;;;23.40;9.90;;;4.70;99.90;;;;;;4156084;28;20045;-56
2020/12/14 06:14:39;;;;;;;21.70;11.30;;;4.70;99.90;;;;;;4156125;28;20313;-59
2020/12/14 06:16:46;;;;;;;24.57;10.50;;;4.70;99.90;;;;;;4155478;28;20377;-42
2020/12/14 06:18:48;;;;;;;24.50;11.20;;;4.70;99.90;;;;;;4147440;28;20600;-51
2020/12/14 06:20:49;;;;;;;23.90;11.07;;;4.70;99.90;;;;;;4139594;28;20668;-53
2020/12/14 06:23:02;;;;;;;34.30;16.10;;;4.70;99.90;;;;;;4139875;28;20326;-56
2020/12/14 06:25:05;;;;;;;40.77;19.83;;;4.70;99.90;;;;;;4139036;28;20679;-38
2020/12/14 06:27:10;;;;;;;43.10;22.30;;;4.70;99.90;;;;;;4140119;28;20267;-47
2020/12/14 06:29:31;;;;;;;41.33;19.93;;;4.70;99.90;;;;;;4139114;28;20825;-54
2020/12/14 06:31:39;;;;;;;24.87;12.60;;;5.00;99.90;;;;;;4140042;28;20271;-48
2020/12/14 06:33:41;;;;;;;26.17;13.00;;;5.10;99.90;;;;;;4138871;28;20318;-45
2020/12/14 06:35:44;;;;;;;24.80;12.23;;;5.00;99.90;;;;;;4141542;28;20384;-41
2020/12/14 06:37:51;;;;;;;24.83;11.50;;;4.90;99.90;;;;;;4152575;28;20622;-44
2020/12/14 06:39:58;;;;;;;32.73;12.77;;;4.90;99.90;;;;;;4156130;28;20271;-41
2020/12/14 06:42:11;;;;;;;30.30;12.97;;;4.90;99.90;;;;;;4137923;28;20362;-44
2020/12/14 06:44:15;;;;;;;30.87;12.30;;;4.90;99.90;;;;;;4158651;28;20283;-45
2020/12/14 06:46:32;;;;;;;39.20;12.87;;;4.90;99.90;;;;;;4139872;28;20298;-44
2020/12/14 06:48:40;;;;;;;32.30;11.67;;;4.90;99.90;;;;;;4157216;28;21116;-46
2020/12/14 06:50:55;;;;;;;31.57;12.20;;;4.80;99.90;;;;;;4153077;28;20282;-48
2020/12/14 06:52:58;;;;;;;31.53;13.47;;;4.80;99.90;;;;;;4153549;28;20697;-44
2020/12/14 06:54:59;;;;;;;39.80;13.33;;;4.80;99.90;;;;;;4157175;28;20271;-45
2020/12/14 06:57:02;;;;;;;26.30;11.80;;;4.80;99.90;;;;;;4159843;28;20271;-42
2020/12/14 06:59:28;;;;;;;29.67;13.50;;;4.80;99.90;;;;;;4156113;28;20275;-42
2020/12/14 07:01:41;;;;;;;30.07;13.63;;;4.80;99.90;;;;;;4157265;28;20306;-50
2020/12/14 07:03:42;;;;;;;20.23;10.20;;;4.80;99.90;;;;;;4145574;28;20291;-54
2020/12/14 07:05:57;;;;;;;18.90;8.73;;;4.80;99.90;;;;;;4158785;28;20278;-44
2020/12/14 07:07:58;;;;;;;18.23;9.53;;;4.80;99.90;;;;;;4153492;28;20275;-44
2020/12/14 07:10:14;;;;;;;20.83;11.00;;;4.90;99.90;;;;;;4155042;28;20336;-48
2020/12/14 07:12:15;;;;;;;22.37;10.60;;;4.90;99.90;;;;;;4156540;28;20278;-48
2020/12/14 07:14:29;;;;;;;20.50;10.80;;;4.90;99.90;;;;;;4156164;28;20413;-39
2020/12/14 07:16:31;;;;;;;25.00;12.00;;;4.90;99.90;;;;;;4157722;28;20267;-38
2020/12/14 07:18:34;;;;;;;23.77;10.57;;;4.90;99.90;;;;;;4159754;28;20271;-48
2020/12/14 07:20:52;;;;;;;21.57;10.33;;;4.90;99.90;;;;;;4163792;28;20262;-47
2020/12/14 07:22:53;;;;;;;25.40;12.67;;;4.80;99.90;;;;;;4156413;28;20283;-40
2020/12/14 07:25:05;;;;;;;38.73;16.40;;;4.80;99.90;;;;;;4147926;28;20298;-49
2020/12/14 07:27:09;;;;;;;29.87;12.67;;;4.90;99.90;;;;;;4148365;28;20278;-39
2020/12/14 07:29:10;;;;;;;25.77;13.40;;;4.80;99.90;;;;;;4157916;28;20267;-44
2020/12/14 07:31:15;;;;;;;24.80;12.17;;;4.90;99.90;;;;;;4158557;28;20278;-38
2020/12/14 07:33:16;;;;;;;27.07;12.60;;;4.90;99.90;;;;;;4157496;28;20282;-46
2020/12/14 07:35:17;;;;;;;22.77;11.83;;;4.90;99.90;;;;;;4145382;28;20279;-38
2020/12/14 07:37:22;;;;;;;23.43;11.80;;;4.90;99.90;;;;;;4157362;28;20278;-41
2020/12/14 07:39:23;;;;;;;25.07;10.07;;;4.90;99.90;;;;;;4158091;28;20295;-40
2020/12/14 07:41:26;;;;;;;21.00;10.60;;;5.00;99.90;;;;;;4158281;28;20255;-41
2020/12/14 07:43:27;;;;;;;19.40;10.07;;;5.00;99.90;;;;;;4149597;28;20781;-39
2020/12/14 07:45:28;;;;;;;21.37;10.27;;;5.00;99.90;;;;;;4142367;28;20322;-40
2020/12/14 07:47:29;;;;;;;27.93;12.67;;;5.00;99.90;;;;;;4155847;28;20324;-52
2020/12/14 07:49:30;;;;;;;28.90;12.90;;;4.90;99.90;;;;;;4155496;28;20880;-37
2020/12/14 07:51:34;;;;;;;30.63;14.10;;;5.00;99.90;;;;;;4158241;28;20277;-40
2020/12/14 07:53:35;;;;;;;23.90;12.30;;;5.00;99.90;;;;;;4156663;28;20751;-39
2020/12/14 07:55:38;;;;;;;27.73;12.97;;;5.10;99.90;;;;;;4148263;28;20263;-42
2020/12/14 07:57:42;;;;;;;24.03;12.63;;;5.00;99.90;;;;;;4151512;28;20267;-45
2020/12/14 07:59:43;;;;;;;21.97;10.30;;;5.10;99.90;;;;;;4156737;28;20271;-42
2020/12/14 08:01:46;;;;;;;20.33;10.87;;;5.00;99.90;;;;;;4154703;28;20662;-44
2020/12/14 08:03:47;;;;;;;23.77;12.47;;;5.00;99.90;;;;;;4154243;28;20298;-41
2020/12/14 08:05:48;;;;;;;22.77;10.87;;;5.10;99.90;;;;;;4146405;28;20328;-41
2020/12/14 08:07:53;;;;;;;21.63;10.77;;;5.10;99.90;;;;;;4156240;28;20759;-44
2020/12/14 08:09:54;;;;;;;22.93;10.63;;;5.10;99.90;;;;;;4153705;28;20695;-44
2020/12/14 08:11:56;;;;;;;28.73;10.63;;;5.10;99.90;;;;;;4151594;28;20267;-40
2020/12/14 08:13:58;;;;;;;23.33;8.60;;;5.10;99.90;;;;;;4154418;28;20271;-42
2020/12/14 08:16:06;;;;;;;15.00;8.37;;;5.00;99.90;;;;;;4156306;28;20263;-44
2020/12/14 08:18:08;;;;;;;17.70;7.73;;;5.00;99.90;;;;;;4155727;28;20259;-46
2020/12/14 08:20:32;;;;;;;19.43;8.87;;;5.00;99.90;;;;;;4141050;28;20311;-40
2020/12/14 08:22:34;;;;;;;16.70;8.50;;;5.00;99.90;;;;;;4140958;28;20283;-44
2020/12/14 08:24:40;;;;;;;19.97;9.90;;;5.00;99.90;;;;;;4140972;28;20271;-45
2020/12/14 08:26:42;;;;;;;18.57;9.40;;;5.00;99.90;;;;;;4149264;28;20356;-45
2020/12/14 08:28:44;;;;;;;25.77;11.53;;;5.00;99.90;;;;;;4150009;28;20264;-44
2020/12/14 08:30:45;;;;;;;25.60;12.17;;;5.10;99.90;;;;;;4142209;28;20306;-45
2020/12/14 08:33:12;;;;;;;23.43;13.13;;;5.20;99.90;;;;;;4141626;28;20294;-46
2020/12/14 08:35:25;;;;;;;25.93;12.13;;;5.20;99.90;;;;;;4157313;28;20337;-39
2020/12/14 08:37:26;;;;;;;23.50;13.13;;;5.20;99.90;;;;;;4151117;28;20297;-40
2020/12/14 08:39:28;;;;;;;27.57;12.63;;;5.10;99.90;;;;;;4156651;28;20738;-43
2020/12/14 08:41:29;;;;;;;23.70;11.83;;;5.10;99.90;;;;;;4156623;28;20271;-53
2020/12/14 08:43:37;;;;;;;28.70;12.87;;;5.10;99.90;;;;;;4157532;28;20298;-50
2020/12/14 08:45:55;;;;;;;26.90;12.43;;;5.10;99.90;;;;;;4140392;28;20694;-52
2020/12/14 08:47:59;;;;;;;17.90;10.00;;;5.10;99.90;;;;;;4157559;28;20345;-47
2020/12/14 08:50:00;;;;;;;19.10;10.47;;;5.10;99.90;;;;;;4146718;28;20341;-39
2020/12/14 08:52:02;;;;;;;22.13;9.90;;;5.10;99.90;;;;;;4139411;28;20429;-50
2020/12/14 08:54:26;;;;;;;21.47;11.17;;;5.10;99.90;;;;;;4140411;28;20279;-47
2020/12/14 08:56:34;;;;;;;21.33;10.80;;;5.10;99.90;;;;;;4153848;28;20279;-46
2020/12/14 08:58:55;;;;;;;20.40;10.80;;;5.10;99.90;;;;;;4156376;28;20275;-47
2020/12/14 09:01:08;;;;;;;19.20;10.63;;;5.10;99.90;;;;;;4145630;28;20361;-44
2020/12/14 09:03:09;;;;;;;17.20;9.60;;;5.10;99.90;;;;;;4140852;28;20299;-47
2020/12/14 09:05:19;;;;;;;21.07;10.67;;;5.00;99.90;;;;;;4139782;28;20276;-42
2020/12/14 09:07:25;;;;;;;20.83;10.37;;;5.00;99.90;;;;;;4140320;28;20345;-49
2020/12/14 09:09:44;;;;;;;26.47;10.70;;;5.00;99.90;;;;;;4139318;28;20263;-42
2020/12/14 09:11:45;;;;;;;18.70;9.47;;;5.10;99.90;;;;;;4154900;28;20295;-44
2020/12/14 09:13:49;;;;;;;20.57;10.57;;;5.10;99.90;;;;;;4156946;28;20275;-37
2020/12/14 09:15:54;;;;;;;22.47;9.77;;;5.10;99.90;;;;;;4156120;28;20337;-39
2020/12/14 09:18:05;;;;;;;17.93;8.90;;;5.10;99.90;;;;;;4156330;28;20332;-50
2020/12/14 09:20:09;;;;;;;17.27;8.90;;;5.10;99.90;;;;;;4156717;28;20275;-40
2020/12/14 09:22:11;;;;;;;13.40;8.13;;;5.10;99.90;;;;;;4150201;28;20356;-47
2020/12/14 09:24:15;;;;;;;18.17;8.87;;;5.10;99.90;;;;;;4156597;28;20726;-49
2020/12/14 09:26:21;;;;;;;18.30;9.50;;;5.20;99.90;;;;;;4155786;28;20697;-47
2020/12/14 09:28:22;;;;;;;17.63;8.23;;;5.20;99.90;;;;;;4156785;28;20333;-46
2020/12/14 09:30:23;;;;;;;18.67;9.40;;;5.30;99.90;;;;;;4156185;28;20309;-44
2020/12/14 09:32:25;;;;;;;16.23;8.67;;;5.30;99.90;;;;;;4157826;28;21205;-44
2020/12/14 09:34:26;;;;;;;17.43;9.37;;;5.30;99.90;;;;;;4156037;28;20263;-39
2020/12/14 09:36:27;;;;;;;15.87;8.63;;;5.30;99.90;;;;;;4149313;28;20271;-53
2020/12/14 09:38:28;;;;;;;15.43;8.50;;;5.30;99.90;;;;;;4139455;28;20279;-39
2020/12/14 09:40:29;;;;;;;21.90;9.53;;;5.30;99.90;;;;;;4140529;28;20271;-50
2020/12/14 09:42:31;;;;;;;18.63;9.60;;;5.30;99.90;;;;;;4141468;28;20329;-45
2020/12/14 09:44:32;;;;;;;19.00;9.60;;;5.30;99.90;;;;;;4156382;28;20309;-58
2020/12/14 09:46:33;;;;;;;19.47;8.90;;;5.30;99.90;;;;;;4138247;28;20447;-43
2020/12/14 09:48:35;;;;;;;16.93;9.10;;;5.40;99.90;;;;;;4156214;28;20274;-52
2020/12/14 09:50:37;;;;;;;23.10;10.90;;;5.40;99.90;;;;;;4141114;28;20279;-49
2020/12/14 09:52:38;;;;;;;23.53;10.83;;;5.30;99.90;;;;;;4139025;28;20361;-47
2020/12/14 09:54:39;;;;;;;18.30;9.73;;;5.40;99.90;;;;;;4140455;28;20341;-48
2020/12/14 09:56:44;;;;;;;21.17;10.07;;;5.30;99.90;;;;;;4139875;28;20337;-47
2020/12/14 09:58:45;;;;;;;17.33;9.93;;;5.30;99.90;;;;;;4140607;28;20271;-49
2020/12/14 10:00:46;;;;;;;19.90;11.00;;;5.30;99.90;;;;;;4139749;28;20977;-57
2020/12/14 10:02:47;;;;;;;18.23;10.03;;;5.30;99.90;;;;;;4140580;28;20406;-39
2020/12/14 10:04:49;;;;;;;19.73;9.77;;;5.30;99.90;;;;;;4138819;28;20271;-45
2020/12/14 10:06:50;;;;;;;15.67;8.63;;;5.30;99.90;;;;;;4140792;28;20271;-41
2020/12/14 10:08:51;;;;;;;21.87;9.03;;;5.30;99.90;;;;;;4138552;28;20279;-43
2020/12/14 10:10:55;;;;;;;17.73;8.63;;;5.20;99.90;;;;;;4140065;28;20338;-47
2020/12/14 10:13:00;;;;;;;19.63;9.00;;;5.30;99.90;;;;;;4139046;28;20275;-43
2020/12/14 10:15:02;;;;;;;21.57;8.90;;;5.20;99.90;;;;;;4140585;28;20329;-52
2020/12/14 10:17:03;;;;;;;19.17;9.93;;;5.20;99.90;;;;;;4140918;28;20263;-39
2020/12/14 10:19:05;;;;;;;26.73;13.30;;;5.20;99.90;;;;;;4138807;28;20267;-45
2020/12/14 10:21:09;;;;;;;18.77;10.13;;;5.20;99.90;;;;;;4156306;28;20396;-52
2020/12/14 10:23:12;;;;;;;21.57;10.20;;;5.30;99.90;;;;;;4157710;28;20298;-47
2020/12/14 10:25:14;;;;;;;21.87;9.73;;;5.30;99.90;;;;;;4142581;28;20654;-38
2020/12/14 10:27:15;;;;;;;21.90;10.93;;;5.30;99.90;;;;;;4148241;28;20328;-47
2020/12/14 10:29:17;;;;;;;18.20;9.50;;;5.30;99.90;;;;;;4158588;28;20333;-44
2020/12/14 10:31:18;;;;;;;19.40;9.97;;;5.40;99.90;;;;;;4158527;28;21589;-52
2020/12/14 10:33:20;;;;;;;21.57;10.40;;;5.40;99.90;;;;;;4160243;28;20360;-49
2020/12/14 10:35:21;;;;;;;22.40;10.03;;;5.40;99.90;;;;;;4141045;28;20275;-59
2020/12/14 10:37:23;;;;;;;18.67;8.73;;;5.40;99.90;;;;;;4158523;28;20803;-53
2020/12/14 10:39:24;;;;;;;19.00;8.70;;;5.40;99.90;;;;;;4158700;28;20806;-44